createdAt,value
2022-12-14T00:00:04.424Z,98895.72
2022-12-14T00:00:35.836Z,98896.53
2022-12-14T00:01:07.360Z,98897.34
2022-12-14T00:01:38.814Z,98893.81
2022-12-14T00:02:10.310Z,98897.03
2022-12-14T00:02:41.823Z,98893.19
2022-12-14T00:03:13.406Z,98892.06
2022-12-14T00:03:44.983Z,98888.06
2022-12-14T00:04:16.441Z,98889.34
2022-12-14T00:04:47.827Z,98887.75
2022-12-14T00:05:19.300Z,98886.94
2022-12-14T00:05:50.719Z,98888.06
2022-12-14T00:06:22.141Z,98883.72
2022-12-14T00:06:53.537Z,98889.16
2022-12-14T00:07:24.988Z,98879.88
2022-12-14T00:07:56.435Z,98881.50
2022-12-14T00:08:28.245Z,98878.78
2022-12-14T00:09:00.120Z,98876.84
2022-12-14T00:09:31.541Z,98878.78
2022-12-14T00:10:02.949Z,98873.31
2022-12-14T00:10:34.421Z,98872.53
2022-12-14T00:11:06.046Z,98874.13
2022-12-14T00:11:37.448Z,98873.03
2022-12-14T00:12:08.864Z,98871.41
2022-12-14T00:12:40.296Z,98868.69
2022-12-14T00:13:11.726Z,98867.56
2022-12-14T00:13:43.165Z,98864.84
2022-12-14T00:14:14.649Z,98862.13
2022-12-14T00:14:46.057Z,98862.94
2022-12-14T00:15:17.548Z,98861.31
2022-12-14T00:15:49.021Z,98861.31
2022-12-14T00:16:20.439Z,98867.56
2022-12-14T00:16:51.941Z,98861.31
2022-12-14T00:17:23.360Z,98857.31
2022-12-14T00:17:54.758Z,98860.53
2022-12-14T00:18:26.491Z,98862.44
2022-12-14T00:18:58.143Z,98860.22
2022-12-14T00:19:29.540Z,98855.88
2022-12-14T00:20:00.993Z,98865.97
2022-12-14T00:20:32.435Z,98851.25
2022-12-14T00:21:03.912Z,98856.69
2022-12-14T00:21:35.340Z,98856.69
2022-12-14T00:22:06.757Z,98855.88
2022-12-14T00:22:38.184Z,98851.25
2022-12-14T00:23:09.589Z,98853.16
2022-12-14T00:23:41.107Z,98855.06
2022-12-14T00:24:12.518Z,98862.44
2022-12-14T00:24:43.986Z,98847.41
2022-12-14T00:25:15.388Z,98851.72
2022-12-14T00:25:48.986Z,98857.19
2022-12-14T00:26:20.598Z,98855.56
2022-12-14T00:26:51.996Z,98841.97
2022-12-14T00:27:23.387Z,98853.16
2022-12-14T00:27:54.779Z,98852.03
2022-12-14T00:28:26.561Z,98849.31
2022-12-14T00:28:58.140Z,98849.31
2022-12-14T00:29:29.565Z,98853.16
2022-12-14T00:30:00.946Z,98848.53
2022-12-14T00:30:32.354Z,98847.09
2022-12-14T00:31:03.790Z,98847.91
2022-12-14T00:31:35.362Z,98850.63
2022-12-14T00:32:06.785Z,98849.31
2022-12-14T00:32:38.199Z,98851.25
2022-12-14T00:33:09.651Z,98845.47
2022-12-14T00:33:41.131Z,98846.59
2022-12-14T00:34:12.600Z,98850.44
2022-12-14T00:34:43.985Z,98850.44
2022-12-14T00:35:15.426Z,98850.44
2022-12-14T00:35:46.827Z,98844.19
2022-12-14T00:36:18.249Z,98849.13
2022-12-14T00:36:49.760Z,98841.78
2022-12-14T00:37:21.174Z,98850.75
2022-12-14T00:37:52.620Z,98849.63
2022-12-14T00:38:24.204Z,98842.28
2022-12-14T00:38:55.826Z,98839.53
2022-12-14T00:39:27.261Z,98839.84
2022-12-14T00:39:58.649Z,98840.66
2022-12-14T00:40:30.115Z,98840.34
2022-12-14T00:41:01.564Z,98844.69
2022-12-14T00:41:32.997Z,98837.13
2022-12-14T00:42:04.504Z,98840.34
2022-12-14T00:42:35.956Z,98837.63
2022-12-14T00:43:07.393Z,98832.19
2022-12-14T00:43:38.793Z,98837.63
2022-12-14T00:44:10.242Z,98832.19
2022-12-14T00:44:41.656Z,98837.63
2022-12-14T00:45:13.062Z,98837.63
2022-12-14T00:45:44.492Z,98841.16
2022-12-14T00:46:15.967Z,98828.97
2022-12-14T00:46:47.428Z,98833.28
2022-12-14T00:47:18.925Z,98834.09
2022-12-14T00:47:50.359Z,98834.41
2022-12-14T00:48:21.772Z,98835.72
2022-12-14T00:48:53.189Z,98831.38
2022-12-14T00:49:24.601Z,98829.28
2022-12-14T00:49:56.043Z,98831.69
2022-12-14T00:50:27.462Z,98825.94
2022-12-14T00:50:58.858Z,98823.22
2022-12-14T00:51:30.312Z,98819.69
2022-12-14T00:52:01.882Z,98822.09
2022-12-14T00:52:33.334Z,98824.00
2022-12-14T00:53:04.813Z,98818.56
2022-12-14T00:53:36.238Z,98816.16
2022-12-14T00:54:07.641Z,98821.28
2022-12-14T00:54:39.068Z,98817.75
2022-12-14T00:55:10.450Z,98817.75
2022-12-14T00:55:41.883Z,98814.72
2022-12-14T00:56:13.307Z,98818.06
2022-12-14T00:56:44.753Z,98820.50
2022-12-14T00:57:16.224Z,98819.69
2022-12-14T00:57:47.728Z,98819.69
2022-12-14T00:58:19.180Z,98813.13
2022-12-14T00:58:50.627Z,98815.03
2022-12-14T00:59:27.107Z,98816.47
2022-12-14T00:59:58.819Z,98820.00
2022-12-14T01:00:30.208Z,98825.44
2022-12-14T01:01:01.783Z,98820.00
2022-12-14T01:01:33.375Z,98827.34
2022-12-14T01:02:05.032Z,98825.44
2022-12-14T01:02:36.556Z,98828.66
2022-12-14T01:03:07.975Z,98820.00
2022-12-14T01:03:39.446Z,98824.00
2022-12-14T01:04:10.977Z,98822.09
2022-12-14T01:04:42.434Z,98829.47
2022-12-14T01:05:14.042Z,98829.47
2022-12-14T01:05:49.078Z,98824.81
2022-12-14T01:06:20.953Z,98826.44
2022-12-14T01:06:52.402Z,98826.75
2022-12-14T01:07:23.878Z,98827.06
2022-12-14T01:07:55.448Z,98829.47
2022-12-14T01:08:26.929Z,98824.50
2022-12-14T01:08:58.334Z,98825.63
2022-12-14T01:09:29.814Z,98818.88
2022-12-14T01:10:01.272Z,98819.69
2022-12-14T01:10:32.717Z,98824.00
2022-12-14T01:11:04.113Z,98822.41
2022-12-14T01:11:35.605Z,98824.31
2022-12-14T01:12:07.092Z,98817.75
2022-12-14T01:12:38.505Z,98813.13
2022-12-14T01:13:09.924Z,98815.34
2022-12-14T01:13:41.581Z,98814.56
2022-12-14T01:14:14.273Z,98813.13
2022-12-14T01:14:45.748Z,98816.97
2022-12-14T01:15:17.228Z,98806.06
2022-12-14T01:15:48.703Z,98811.53
2022-12-14T01:16:20.289Z,98804.47
2022-12-14T01:16:51.680Z,98807.19
2022-12-14T01:17:23.106Z,98809.41
2022-12-14T01:17:54.552Z,98806.06
2022-12-14T01:18:25.956Z,98806.06
2022-12-14T01:18:57.368Z,98796.00
2022-12-14T01:19:28.778Z,98803.34
2022-12-14T01:20:00.282Z,98801.44
2022-12-14T01:20:31.678Z,98800.63
2022-12-14T01:21:03.237Z,98801.13
2022-12-14T01:21:34.654Z,98799.50
2022-12-14T01:22:06.092Z,98796.00
2022-12-14T01:22:37.536Z,98795.19
2022-12-14T01:23:09.000Z,98793.25
2022-12-14T01:23:40.414Z,98793.25
2022-12-14T01:24:11.811Z,98789.44
2022-12-14T01:24:43.224Z,98790.84
2022-12-14T01:25:14.693Z,98790.06
2022-12-14T01:25:46.141Z,98786.53
2022-12-14T01:26:20.395Z,98786.53
2022-12-14T01:26:52.149Z,98791.66
2022-12-14T01:27:23.549Z,98790.84
2022-12-14T01:27:55.113Z,98790.06
2022-12-14T01:28:26.513Z,98790.06
2022-12-14T01:28:58.016Z,98791.97
2022-12-14T01:29:29.451Z,98792.78
2022-12-14T01:30:00.907Z,98792.47
2022-12-14T01:30:32.340Z,98796.00
2022-12-14T01:31:03.838Z,98791.97
2022-12-14T01:31:35.396Z,98784.91
2022-12-14T01:32:06.841Z,98791.47
2022-12-14T01:32:38.306Z,98791.47
2022-12-14T01:33:09.745Z,98791.97
2022-12-14T01:33:41.155Z,98793.09
2022-12-14T01:34:12.594Z,98793.56
2022-12-14T01:34:44.031Z,98791.97
2022-12-14T01:35:15.453Z,98791.16
2022-12-14T01:35:46.858Z,98789.25
2022-12-14T01:36:18.355Z,98789.25
2022-12-14T01:36:49.783Z,98791.16
2022-12-14T01:37:21.403Z,98792.78
2022-12-14T01:37:52.828Z,98788.44
2022-12-14T01:38:24.343Z,98786.53
2022-12-14T01:38:55.816Z,98787.63
2022-12-14T01:39:27.249Z,98786.84
2022-12-14T01:39:58.766Z,98788.75
2022-12-14T01:40:30.209Z,98785.72
2022-12-14T01:41:01.681Z,98790.38
2022-12-14T01:41:33.126Z,98784.13
2022-12-14T01:42:04.589Z,98783.31
2022-12-14T01:42:36.061Z,98791.47
2022-12-14T01:43:07.495Z,98795.81
2022-12-14T01:43:38.981Z,98788.13
2022-12-14T01:44:10.407Z,98792.47
2022-12-14T01:44:41.833Z,98788.44
2022-12-14T01:45:13.279Z,98788.13
2022-12-14T01:45:44.688Z,98790.66
2022-12-14T01:46:16.148Z,98791.47
2022-12-14T01:46:47.636Z,98791.16
2022-12-14T01:47:19.157Z,98788.44
2022-12-14T01:47:50.668Z,98787.34
2022-12-14T01:48:22.150Z,98787.34
2022-12-14T01:48:53.611Z,98791.47
2022-12-14T01:49:24.998Z,98787.16
2022-12-14T01:49:56.416Z,98784.44
2022-12-14T01:50:27.844Z,98789.56
2022-12-14T01:50:59.308Z,98788.44
2022-12-14T01:51:30.723Z,98785.72
2022-12-14T01:52:02.165Z,98787.34
2022-12-14T01:52:33.602Z,98782.19
2022-12-14T01:53:05.111Z,98785.41
2022-12-14T01:53:36.622Z,98783.31
2022-12-14T01:54:08.109Z,98780.28
2022-12-14T01:54:39.555Z,98779.16
2022-12-14T01:55:11.017Z,98771.31
2022-12-14T01:55:42.440Z,98774.03
2022-12-14T01:56:20.305Z,98771.31
2022-12-14T01:56:51.736Z,98778.34
2022-12-14T01:57:23.156Z,98773.41
2022-12-14T01:57:54.563Z,98772.59
2022-12-14T01:58:25.990Z,98767.47
2022-12-14T01:58:57.398Z,98770.19
2022-12-14T01:59:28.887Z,98774.22
2022-12-14T02:00:06.661Z,98764.44
2022-12-14T02:00:38.529Z,98760.09
2022-12-14T02:01:09.943Z,98766.66
2022-12-14T02:01:41.541Z,98763.13
2022-12-14T02:02:13.170Z,98757.69
2022-12-14T02:02:44.778Z,98756.59
2022-12-14T02:03:16.318Z,98757.38
2022-12-14T02:03:47.910Z,98765.56
2022-12-14T02:04:19.437Z,98757.69
2022-12-14T02:04:50.926Z,98756.59
2022-12-14T02:05:22.337Z,98754.66
2022-12-14T02:05:53.776Z,98752.25
2022-12-14T02:06:25.258Z,98764.75
2022-12-14T02:07:01.101Z,98766.34
2022-12-14T02:07:32.881Z,98758.50
2022-12-14T02:08:04.299Z,98758.50
2022-12-14T02:08:35.765Z,98756.59
2022-12-14T02:09:07.218Z,98751.75
2022-12-14T02:09:38.568Z,98760.09
2022-12-14T02:10:10.043Z,98757.69
2022-12-14T02:10:41.472Z,98754.97
2022-12-14T02:11:12.905Z,98759.31
2022-12-14T02:11:44.374Z,98749.53
2022-12-14T02:12:15.757Z,98750.03
2022-12-14T02:12:47.194Z,98751.63
2022-12-14T02:13:18.633Z,98750.81
2022-12-14T02:13:50.035Z,98752.75
2022-12-14T02:14:21.508Z,98756.59
2022-12-14T02:14:52.946Z,98745.69
2022-12-14T02:15:24.430Z,98753.84
2022-12-14T02:15:55.940Z,98751.44
2022-12-14T02:16:27.465Z,98746.00
2022-12-14T02:16:58.990Z,98749.53
2022-12-14T02:17:30.335Z,98750.66
2022-12-14T02:18:01.722Z,98743.09
2022-12-14T02:18:33.164Z,98748.25
2022-12-14T02:19:04.595Z,98747.13
2022-12-14T02:19:36.144Z,98746.81
2022-12-14T02:20:07.573Z,98745.19
2022-12-14T02:20:39.153Z,98743.59
2022-12-14T02:21:10.620Z,98744.41
2022-12-14T02:21:42.079Z,98745.19
2022-12-14T02:22:13.504Z,98743.78
2022-12-14T02:22:44.963Z,98735.91
2022-12-14T02:23:16.370Z,98738.63
2022-12-14T02:23:47.791Z,98737.03
2022-12-14T02:24:19.289Z,98736.53
2022-12-14T02:24:50.713Z,98735.44
2022-12-14T02:25:22.176Z,98725.34
2022-12-14T02:25:53.677Z,98733.50
2022-12-14T02:26:25.123Z,98727.75
2022-12-14T02:26:56.565Z,98727.44
2022-12-14T02:27:27.981Z,98729.97
2022-12-14T02:27:59.770Z,98732.72
2022-12-14T02:28:31.186Z,98719.59
2022-12-14T02:29:02.566Z,98724.22
2022-12-14T02:29:33.949Z,98720.38
2022-12-14T02:30:05.371Z,98723.44
2022-12-14T02:30:36.810Z,98729.34
2022-12-14T02:31:08.344Z,98719.59
2022-12-14T02:31:39.867Z,98722.31
2022-12-14T02:32:11.307Z,98724.22
2022-12-14T02:32:42.781Z,98717.97
2022-12-14T02:33:14.239Z,98717.19
2022-12-14T02:33:45.644Z,98728.88
2022-12-14T02:34:17.077Z,98720.38
2022-12-14T02:34:48.528Z,98723.13
2022-12-14T02:35:20.014Z,98711.09
2022-12-14T02:35:51.416Z,98713.34
2022-12-14T02:36:22.862Z,98707.09
2022-12-14T02:36:54.323Z,98705.19
2022-12-14T02:37:25.758Z,98710.13
2022-12-14T02:37:57.199Z,98704.38
2022-12-14T02:38:28.688Z,98705.97
2022-12-14T02:39:00.128Z,98707.59
2022-12-14T02:39:31.519Z,98705.19
2022-12-14T02:40:02.914Z,98698.44
2022-12-14T02:40:34.272Z,98696.19
2022-12-14T02:41:05.675Z,98700.03
2022-12-14T02:41:40.169Z,98700.53
2022-12-14T02:42:11.622Z,98700.22
2022-12-14T02:42:43.019Z,98687.72
2022-12-14T02:43:14.503Z,98689.34
2022-12-14T02:43:47.389Z,98698.63
2022-12-14T02:44:18.943Z,98697.81
2022-12-14T02:44:50.434Z,98696.69
2022-12-14T02:45:21.847Z,98694.28
2022-12-14T02:45:53.283Z,98695.56
2022-12-14T02:46:24.795Z,98697.81
2022-12-14T02:46:56.284Z,98698.63
2022-12-14T02:47:27.746Z,98698.31
2022-12-14T02:47:59.156Z,98699.09
2022-12-14T02:48:30.656Z,98698.31
2022-12-14T02:49:02.051Z,98696.69
2022-12-14T02:49:33.471Z,98699.72
2022-12-14T02:50:04.923Z,98692.38
2022-12-14T02:50:36.349Z,98696.19
2022-12-14T02:51:07.823Z,98690.75
2022-12-14T02:51:39.258Z,98692.84
2022-12-14T02:52:10.713Z,98692.06
2022-12-14T02:52:42.110Z,98694.78
2022-12-14T02:53:13.555Z,98687.72
2022-12-14T02:53:45.006Z,98687.72
2022-12-14T02:54:16.408Z,98691.56
2022-12-14T02:54:47.861Z,98681.47
2022-12-14T02:55:19.275Z,98677.63
2022-12-14T02:55:50.805Z,98686.94
2022-12-14T02:56:22.214Z,98680.38
2022-12-14T02:56:53.675Z,98681.47
2022-12-14T02:57:25.083Z,98675.22
2022-12-14T02:57:56.475Z,98666.75
2022-12-14T02:58:27.982Z,98672.19
2022-12-14T02:58:59.430Z,98668.97
2022-12-14T02:59:30.875Z,98671.72
2022-12-14T03:00:02.349Z,98672.81
2022-12-14T03:00:34.019Z,98668.97
2022-12-14T03:01:05.652Z,98666.25
2022-12-14T03:01:37.278Z,98666.75
2022-12-14T03:02:08.923Z,98669.16
2022-12-14T03:02:40.578Z,98669.47
2022-12-14T03:03:12.154Z,98665.94
2022-12-14T03:03:43.647Z,98670.59
2022-12-14T03:04:15.336Z,98664.84
2022-12-14T03:04:46.817Z,98665.63
2022-12-14T03:05:18.358Z,98668.34
2022-12-14T03:05:49.872Z,98662.91
2022-12-14T03:06:21.297Z,98662.44
2022-12-14T03:06:52.680Z,98666.75
2022-12-14T03:07:24.107Z,98661.31
2022-12-14T03:07:55.524Z,98660.50
2022-12-14T03:08:26.990Z,98667.56
2022-12-14T03:08:58.474Z,98657.47
2022-12-14T03:09:29.899Z,98660.19
2022-12-14T03:10:01.369Z,98652.03
2022-12-14T03:10:32.844Z,98654.25
2022-12-14T03:11:04.262Z,98662.44
2022-12-14T03:11:35.666Z,98658.91
2022-12-14T03:12:07.130Z,98656.66
2022-12-14T03:12:38.520Z,98652.03
2022-12-14T03:13:09.967Z,98651.22
2022-12-14T03:13:41.402Z,98653.47
2022-12-14T03:14:12.851Z,98659.69
2022-12-14T03:14:44.293Z,98661.31
2022-12-14T03:15:15.707Z,98651.53
2022-12-14T03:15:47.362Z,98654.25
2022-12-14T03:16:18.804Z,98658.91
2022-12-14T03:16:50.210Z,98654.25
2022-12-14T03:17:21.664Z,98662.09
2022-12-14T03:17:53.062Z,98658.28
2022-12-14T03:18:24.797Z,98654.75
2022-12-14T03:18:56.215Z,98656.66
2022-12-14T03:19:27.729Z,98655.38
2022-12-14T03:19:59.173Z,98658.28
2022-12-14T03:20:30.563Z,98655.88
2022-12-14T03:21:01.995Z,98658.09
2022-12-14T03:21:33.410Z,98653.13
2022-12-14T03:22:04.841Z,98653.47
2022-12-14T03:22:36.251Z,98655.38
2022-12-14T03:23:07.715Z,98652.97
2022-12-14T03:23:39.069Z,98651.03
2022-12-14T03:24:10.500Z,98647.53
2022-12-14T03:24:42.002Z,98647.22
2022-12-14T03:25:13.428Z,98635.19
2022-12-14T03:25:44.828Z,98636.31
2022-12-14T03:26:16.408Z,98634.41
2022-12-14T03:26:47.911Z,98632.78
2022-12-14T03:27:19.315Z,98629.28
2022-12-14T03:27:50.783Z,98638.72
2022-12-14T03:28:22.172Z,98630.56
2022-12-14T03:28:53.607Z,98633.59
2022-12-14T03:29:25.047Z,98633.59
2022-12-14T03:29:56.551Z,98631.69
2022-12-14T03:30:58.220Z,98632.47
2022-12-14T03:31:19.437Z,98631.38
2022-12-14T03:31:50.901Z,98632.16
2022-12-14T03:32:22.398Z,98634.09
2022-12-14T03:32:53.849Z,98635.69
2022-12-14T03:33:25.683Z,98638.41
2022-12-14T03:33:57.300Z,98632.47
2022-12-14T03:34:28.703Z,98635.19
2022-12-14T03:35:00.195Z,98628.31
2022-12-14T03:35:31.642Z,98626.41
2022-12-14T03:36:03.074Z,98632.97
2022-12-14T03:36:34.511Z,98627.53
2022-12-14T03:37:05.944Z,98628.31
2022-12-14T03:37:37.427Z,98624.00
2022-12-14T03:38:08.891Z,98630.72
2022-12-14T03:38:40.401Z,98627.53
2022-12-14T03:39:11.807Z,98627.03
2022-12-14T03:39:43.185Z,98625.91
2022-12-14T03:40:14.727Z,98627.03
2022-12-14T03:40:46.155Z,98624.31
2022-12-14T03:41:17.586Z,98624.00
2022-12-14T03:41:49.272Z,98624.81
2022-12-14T03:42:20.823Z,98627.53
2022-12-14T03:42:52.250Z,98628.66
2022-12-14T03:43:25.712Z,98618.88
2022-12-14T03:43:57.351Z,98622.06
2022-12-14T03:44:28.737Z,98621.28
2022-12-14T03:45:00.150Z,98618.56
2022-12-14T03:45:31.709Z,98615.03
2022-12-14T03:46:03.193Z,98618.88
2022-12-14T03:46:34.609Z,98613.91
2022-12-14T03:47:06.090Z,98620.16
2022-12-14T03:47:37.504Z,98615.34
2022-12-14T03:48:08.949Z,98615.03
2022-12-14T03:48:40.349Z,98615.34
2022-12-14T03:49:11.728Z,98622.72
2022-12-14T03:49:43.179Z,98609.91
2022-12-14T03:50:14.591Z,98611.50
2022-12-14T03:50:46.101Z,98616.63
2022-12-14T03:51:17.517Z,98613.91
2022-12-14T03:51:48.954Z,98605.75
2022-12-14T03:52:20.428Z,98608.47
2022-12-14T03:52:51.837Z,98606.56
2022-12-14T03:53:23.294Z,98600.31
2022-12-14T03:53:54.778Z,98603.81
2022-12-14T03:54:26.137Z,98605.75
2022-12-14T03:54:57.596Z,98603.03
2022-12-14T03:55:29.021Z,98597.59
2022-12-14T03:56:00.564Z,98600.31
2022-12-14T03:56:31.941Z,98600.63
2022-12-14T03:57:03.382Z,98597.09
2022-12-14T03:57:34.807Z,98607.66
2022-12-14T03:58:06.197Z,98596.47
2022-12-14T03:58:37.667Z,98600.31
2022-12-14T03:59:09.072Z,98596.78
2022-12-14T03:59:40.471Z,98595.19
2022-12-14T04:00:11.904Z,98590.53
2022-12-14T04:00:43.392Z,98590.84
2022-12-14T04:01:15.148Z,98592.44
2022-12-14T04:01:46.773Z,98591.34
2022-12-14T04:02:20.829Z,98594.84
2022-12-14T04:02:52.380Z,98594.53
2022-12-14T04:03:24.108Z,98596.47
2022-12-14T04:03:55.689Z,98593.75
2022-12-14T04:04:27.198Z,98597.59
2022-12-14T04:04:58.687Z,98594.84
2022-12-14T04:05:30.142Z,98595.97
2022-12-14T04:06:01.689Z,98592.44
2022-12-14T04:06:33.168Z,98595.97
2022-12-14T04:07:04.591Z,98597.09
2022-12-14T04:07:35.983Z,98601.41
2022-12-14T04:08:07.418Z,98597.91
2022-12-14T04:08:38.846Z,98595.19
2022-12-14T04:09:10.336Z,98589.41
2022-12-14T04:09:41.782Z,98591.81
2022-12-14T04:10:13.200Z,98587.81
2022-12-14T04:10:44.615Z,98587.81
2022-12-14T04:11:16.021Z,98586.22
2022-12-14T04:11:47.516Z,98583.00
2022-12-14T04:12:18.950Z,98587.00
2022-12-14T04:12:51.646Z,98585.09
2022-12-14T04:13:23.244Z,98587.00
2022-12-14T04:13:54.676Z,98582.69
2022-12-14T04:14:26.132Z,98583.47
2022-12-14T04:14:57.614Z,98579.16
2022-12-14T04:15:28.994Z,98585.72
2022-12-14T04:16:00.398Z,98582.69
2022-12-14T04:16:31.945Z,98581.06
2022-12-14T04:17:03.464Z,98588.13
2022-12-14T04:17:34.924Z,98582.19
2022-12-14T04:18:06.397Z,98585.72
2022-12-14T04:18:37.856Z,98587.31
2022-12-14T04:19:09.296Z,98581.41
2022-12-14T04:19:40.699Z,98583.00
2022-12-14T04:20:12.128Z,98587.31
2022-12-14T04:20:43.556Z,98585.09
2022-12-14T04:21:15.294Z,98584.28
2022-12-14T04:21:46.713Z,98578.03
2022-12-14T04:22:18.251Z,98581.88
2022-12-14T04:22:49.681Z,98580.75
2022-12-14T04:23:21.119Z,98584.28
2022-12-14T04:23:52.552Z,98578.03
2022-12-14T04:24:23.965Z,98581.06
2022-12-14T04:24:55.406Z,98579.47
2022-12-14T04:25:26.815Z,98581.72
2022-12-14T04:25:58.287Z,98585.72
2022-12-14T04:26:29.792Z,98582.84
2022-12-14T04:27:01.233Z,98584.75
2022-12-14T04:27:32.822Z,98585.38
2022-12-14T04:28:04.320Z,98582.19
2022-12-14T04:28:35.749Z,98582.81
2022-12-14T04:29:07.131Z,98594.00
2022-12-14T04:29:41.510Z,98590.31
2022-12-14T04:30:17.147Z,98589.81
2022-12-14T04:30:48.560Z,98590.44
2022-12-14T04:31:20.027Z,98583.41
2022-12-14T04:31:51.529Z,98587.56
2022-12-14T04:32:23.039Z,98581.31
2022-12-14T04:32:54.732Z,98580.50
2022-12-14T04:33:26.539Z,98585.63
2022-12-14T04:33:58.336Z,98582.91
2022-12-14T04:34:29.844Z,98584.34
2022-12-14T04:35:01.268Z,98587.88
2022-12-14T04:35:32.705Z,98580.03
2022-12-14T04:36:04.123Z,98577.31
2022-12-14T04:36:35.539Z,98577.31
2022-12-14T04:37:06.925Z,98578.09
2022-12-14T04:37:38.544Z,98575.69
2022-12-14T04:38:10.037Z,98576.00
2022-12-14T04:38:41.436Z,98566.72
2022-12-14T04:39:12.920Z,98564.63
2022-12-14T04:39:44.361Z,98567.84
2022-12-14T04:40:15.747Z,98574.09
2022-12-14T04:40:47.196Z,98571.69
2022-12-14T04:41:18.616Z,98569.25
2022-12-14T04:41:50.096Z,98570.06
2022-12-14T04:42:21.529Z,98578.72
2022-12-14T04:42:52.930Z,98571.97
2022-12-14T04:43:24.828Z,98577.41
2022-12-14T04:43:56.405Z,98577.13
2022-12-14T04:44:27.846Z,98579.34
2022-12-14T04:44:59.340Z,98575.81
2022-12-14T04:45:30.826Z,98580.94
2022-12-14T04:46:02.395Z,98579.03
2022-12-14T04:46:38.875Z,98577.94
2022-12-14T04:47:11.898Z,98572.78
2022-12-14T04:47:43.335Z,98578.22
2022-12-14T04:48:14.797Z,98582.38
2022-12-14T04:48:46.248Z,98581.25
2022-12-14T04:49:17.763Z,98577.72
2022-12-14T04:49:49.435Z,98575.81
2022-12-14T04:50:20.935Z,98580.94
2022-12-14T04:50:52.333Z,98579.84
2022-12-14T04:51:23.846Z,98578.22
2022-12-14T04:51:57.303Z,98577.13
2022-12-14T04:52:32.071Z,98577.41
2022-12-14T04:53:03.486Z,98579.53
2022-12-14T04:53:34.904Z,98579.03
2022-12-14T04:54:06.317Z,98579.53
2022-12-14T04:54:37.827Z,98581.44
2022-12-14T04:55:09.254Z,98577.13
2022-12-14T04:55:40.707Z,98579.03
2022-12-14T04:56:12.140Z,98580.66
2022-12-14T04:56:43.586Z,98579.03
2022-12-14T04:57:19.074Z,98576.94
2022-12-14T04:57:51.008Z,98578.84
2022-12-14T04:58:22.466Z,98579.97
2022-12-14T04:58:53.875Z,98564.44
2022-12-14T04:59:25.397Z,98562.53
2022-12-14T04:59:56.909Z,98571.47
2022-12-14T05:00:28.400Z,98563.31
2022-12-14T05:00:59.966Z,98567.66
2022-12-14T05:01:31.639Z,98560.59
2022-12-14T05:02:03.234Z,98564.13
2022-12-14T05:02:34.878Z,98563.00
2022-12-14T05:03:06.484Z,98555.97
2022-12-14T05:03:37.934Z,98562.22
2022-12-14T05:04:12.493Z,98558.38
2022-12-14T05:04:44.369Z,98558.88
2022-12-14T05:05:15.887Z,98558.38
2022-12-14T05:05:47.298Z,98556.75
2022-12-14T05:06:18.724Z,98557.56
2022-12-14T05:06:50.109Z,98562.22
2022-12-14T05:07:21.568Z,98556.75
2022-12-14T05:07:53.011Z,98561.09
2022-12-14T05:08:24.424Z,98560.28
2022-12-14T05:08:55.924Z,98562.22
2022-12-14T05:09:27.534Z,98557.09
2022-12-14T05:09:58.999Z,98557.09
2022-12-14T05:10:30.486Z,98558.69
2022-12-14T05:11:22.117Z,98567.66
2022-12-14T05:11:54.491Z,98553.72
2022-12-14T05:12:26.284Z,98556.16
2022-12-14T05:12:57.703Z,98547.19
2022-12-14T05:13:29.435Z,98553.72
2022-12-14T05:14:03.660Z,98558.88
2022-12-14T05:14:35.192Z,98552.44
2022-12-14T05:15:06.611Z,98552.44
2022-12-14T05:15:38.127Z,98556.75
2022-12-14T05:16:09.531Z,98559.16
2022-12-14T05:16:41.015Z,98544.47
2022-12-14T05:17:12.561Z,98554.03
2022-12-14T05:17:43.989Z,98552.13
2022-12-14T05:18:15.408Z,98552.44
2022-12-14T05:18:46.821Z,98541.25
2022-12-14T05:19:18.222Z,98545.88
2022-12-14T05:19:49.682Z,98545.41
2022-12-14T05:20:21.122Z,98539.63
2022-12-14T05:20:52.639Z,98533.09
2022-12-14T05:21:24.118Z,98544.47
2022-12-14T05:21:55.550Z,98534.19
2022-12-14T05:22:26.928Z,98536.91
2022-12-14T05:22:58.535Z,98540.44
2022-12-14T05:23:30.301Z,98538.53
2022-12-14T05:24:01.908Z,98538.53
2022-12-14T05:24:33.330Z,98531.97
2022-12-14T05:25:04.828Z,98535.31
2022-12-14T05:25:36.258Z,98533.41
2022-12-14T05:26:07.814Z,98529.56
2022-12-14T05:26:39.232Z,98533.41
2022-12-14T05:27:10.678Z,98532.81
2022-12-14T05:27:42.257Z,98530.38
2022-12-14T05:28:13.734Z,98530.69
2022-12-14T05:28:50.237Z,98530.06
2022-12-14T05:29:21.996Z,98532.81
2022-12-14T05:29:53.460Z,98526.25
2022-12-14T05:30:24.927Z,98528.16
2022-12-14T05:30:56.548Z,98532.47
2022-12-14T05:31:28.063Z,98524.63
2022-12-14T05:31:59.454Z,98528.97
2022-12-14T05:32:30.878Z,98522.41
2022-12-14T05:33:02.338Z,98524.31
2022-12-14T05:33:33.829Z,98522.41
2022-12-14T05:34:05.276Z,98520.50
2022-12-14T05:34:36.720Z,98522.88
2022-12-14T05:35:08.159Z,98526.41
2022-12-14T05:35:39.536Z,98517.75
2022-12-14T05:36:10.949Z,98524.00
2022-12-14T05:36:42.434Z,98515.03
2022-12-14T05:37:18.242Z,98518.88
2022-12-14T05:37:50.107Z,98513.13
2022-12-14T05:38:21.611Z,98516.97
2022-12-14T05:38:53.196Z,98513.13
2022-12-14T05:39:24.651Z,98512.63
2022-12-14T05:39:56.026Z,98513.44
2022-12-14T05:40:27.538Z,98515.84
2022-12-14T05:40:58.927Z,98510.88
2022-12-14T05:41:30.349Z,98514.72
2022-12-14T05:42:01.748Z,98505.44
2022-12-14T05:42:33.193Z,98507.69
2022-12-14T05:43:04.586Z,98501.13
2022-12-14T05:43:36.263Z,98506.56
2022-12-14T05:44:07.764Z,98500.50
2022-12-14T05:44:39.221Z,98510.09
2022-12-14T05:45:10.694Z,98501.94
2022-12-14T05:45:42.144Z,98501.13
2022-12-14T05:46:13.551Z,98500.31
2022-12-14T05:46:45.054Z,98500.31
2022-12-14T05:47:16.525Z,98503.03
2022-12-14T05:47:47.958Z,98500.31
2022-12-14T05:48:19.351Z,98503.84
2022-12-14T05:48:50.892Z,98494.09
2022-12-14T05:49:22.421Z,98495.69
2022-12-14T05:49:53.846Z,98497.59
2022-12-14T05:50:25.407Z,98501.44
2022-12-14T05:50:56.824Z,98498.09
2022-12-14T05:51:28.298Z,98498.09
2022-12-14T05:51:59.737Z,98501.63
2022-12-14T05:52:31.128Z,98493.75
2022-12-14T05:53:02.592Z,98497.28
2022-12-14T05:53:33.981Z,98490.72
2022-12-14T05:54:05.538Z,98492.34
2022-12-14T05:54:36.943Z,98493.44
2022-12-14T05:55:08.384Z,98493.44
2022-12-14T05:55:39.852Z,98484.81
2022-12-14T05:56:11.264Z,98486.41
2022-12-14T05:56:42.706Z,98484.47
2022-12-14T05:57:14.150Z,98484.47
2022-12-14T05:57:45.599Z,98484.97
2022-12-14T05:58:16.967Z,98481.44
2022-12-14T05:58:48.405Z,98492.66
2022-12-14T05:59:19.930Z,98484.97
2022-12-14T05:59:51.476Z,98486.41
2022-12-14T06:00:23.085Z,98491.84
2022-12-14T06:00:54.589Z,98487.53
2022-12-14T06:01:26.135Z,98481.75
2022-12-14T06:01:57.774Z,98486.41
2022-12-14T06:02:29.297Z,98488.00
2022-12-14T06:03:00.816Z,98488.50
2022-12-14T06:03:32.301Z,98484.66
2022-12-14T06:04:03.771Z,98476.81
2022-12-14T06:04:35.351Z,98481.94
2022-12-14T06:05:06.850Z,98478.56
2022-12-14T06:05:38.358Z,98484.50
2022-12-14T06:06:09.824Z,98484.50
2022-12-14T06:06:41.257Z,98482.28
2022-12-14T06:07:12.694Z,98486.59
2022-12-14T06:07:44.088Z,98485.16
2022-12-14T06:08:15.553Z,98481.63
2022-12-14T06:08:46.930Z,98486.44
2022-12-14T06:09:18.342Z,98488.69
2022-12-14T06:09:49.749Z,98480.19
2022-12-14T06:10:21.334Z,98486.13
2022-12-14T06:10:52.761Z,98480.34
2022-12-14T06:11:24.226Z,98486.28